sensor_id;sensor_type;location;lat;lon;timestamp;P1;durP1;ratioP1;P2;durP2;ratioP2
20014;SDS011;61787;42.022;23.078;2022-12-07T00:00:48;13.27;;;9.27;;
20014;SDS011;61787;42.022;23.078;2022-12-07T00:01:50;16.40;;;9.50;;
20014;SDS011;61787;42.022;23.078;2022-12-07T00:02:51;18.77;;;9.73;;
20014;SDS011;61787;42.022;23.078;2022-12-07T00:03:54;14.43;;;8.67;;
20014;SDS011;61787;42.022;23.078;2022-12-07T00:05:01;13.93;;;8.50;;
20014;SDS011;61787;42.022;23.078;2022-12-07T00:06:03;16.70;;;9.23;;
20014;SDS011;61787;42.022;23.078;2022-12-07T00:07:06;15.13;;;9.20;;
20014;SDS011;61787;42.022;23.078;2022-12-07T00:08:08;15.37;;;9.40;;
20014;SDS011;61787;42.022;23.078;2022-12-07T00:09:10;15.17;;;9.60;;
20014;SDS011;61787;42.022;23.078;2022-12-07T00:10:14;17.23;;;9.13;;
20014;SDS011;61787;42.022;23.078;2022-12-07T00:11:19;17.43;;;9.30;;
20014;SDS011;61787;42.022;23.078;2022-12-07T00:12:21;15.07;;;9.43;;
20014;SDS011;61787;42.022;23.078;2022-12-07T00:13:23;14.33;;;9.10;;
20014;SDS011;61787;42.022;23.078;2022-12-07T00:14:25;12.83;;;8.70;;
20014;SDS011;61787;42.022;23.078;2022-12-07T00:15:26;17.90;;;9.07;;
20014;SDS011;61787;42.022;23.078;2022-12-07T00:16:29;17.63;;;9.50;;
20014;SDS011;61787;42.022;23.078;2022-12-07T00:17:32;13.30;;;8.40;;
20014;SDS011;61787;42.022;23.078;2022-12-07T00:18:35;15.57;;;9.23;;
20014;SDS011;61787;42.022;23.078;2022-12-07T00:19:37;16.43;;;9.93;;
20014;SDS011;61787;42.022;23.078;2022-12-07T00:20:38;17.63;;;9.20;;
20014;SDS011;61787;42.022;23.078;2022-12-07T00:21:40;14.63;;;9.10;;
20014;SDS011;61787;42.022;23.078;2022-12-07T00:22:42;11.80;;;8.70;;
20014;SDS011;61787;42.022;23.078;2022-12-07T00:23:44;12.33;;;8.93;;
20014;SDS011;61787;42.022;23.078;2022-12-07T00:24:47;16.57;;;8.30;;
20014;SDS011;61787;42.022;23.078;2022-12-07T00:25:49;14.73;;;8.90;;
20014;SDS011;61787;42.022;23.078;2022-12-07T00:26:50;12.63;;;8.33;;
20014;SDS011;61787;42.022;23.078;2022-12-07T00:27:52;14.77;;;8.23;;
20014;SDS011;61787;42.022;23.078;2022-12-07T00:28:58;14.77;;;8.50;;
20014;SDS011;61787;42.022;23.078;2022-12-07T00:30:13;12.43;;;7.73;;
20014;SDS011;61787;42.022;23.078;2022-12-07T00:31:15;15.87;;;8.50;;
20014;SDS011;61787;42.022;23.078;2022-12-07T00:32:18;13.37;;;7.67;;
20014;SDS011;61787;42.022;23.078;2022-12-07T00:33:20;11.03;;;7.80;;
20014;SDS011;61787;42.022;23.078;2022-12-07T00:34:21;12.27;;;7.97;;
20014;SDS011;61787;42.022;23.078;2022-12-07T00:35:23;14.67;;;8.00;;
20014;SDS011;61787;42.022;23.078;2022-12-07T00:36:25;14.13;;;7.90;;
20014;SDS011;61787;42.022;23.078;2022-12-07T00:37:27;13.27;;;7.70;;
20014;SDS011;61787;42.022;23.078;2022-12-07T00:38:30;11.97;;;7.43;;
20014;SDS011;61787;42.022;23.078;2022-12-07T00:39:33;15.63;;;8.43;;
20014;SDS011;61787;42.022;23.078;2022-12-07T00:40:34;11.60;;;7.40;;
20014;SDS011;61787;42.022;23.078;2022-12-07T00:41:36;12.17;;;7.80;;
20014;SDS011;61787;42.022;23.078;2022-12-07T00:42:37;13.90;;;7.67;;
20014;SDS011;61787;42.022;23.078;2022-12-07T00:43:40;13.10;;;7.43;;
20014;SDS011;61787;42.022;23.078;2022-12-07T00:44:43;12.87;;;7.40;;
20014;SDS011;61787;42.022;23.078;2022-12-07T00:45:44;11.87;;;7.87;;
20014;SDS011;61787;42.022;23.078;2022-12-07T00:46:46;15.47;;;7.63;;
20014;SDS011;61787;42.022;23.078;2022-12-07T00:47:47;10.17;;;7.60;;
20014;SDS011;61787;42.022;23.078;2022-12-07T00:48:50;16.90;;;7.80;;
20014;SDS011;61787;42.022;23.078;2022-12-07T00:49:52;13.80;;;8.10;;
20014;SDS011;61787;42.022;23.078;2022-12-07T00:50:54;12.90;;;7.80;;
20014;SDS011;61787;42.022;23.078;2022-12-07T00:51:55;12.70;;;8.40;;
20014;SDS011;61787;42.022;23.078;2022-12-07T00:52:57;11.73;;;7.50;;
20014;SDS011;61787;42.022;23.078;2022-12-07T00:53:58;12.70;;;7.93;;
20014;SDS011;61787;42.022;23.078;2022-12-07T00:55:00;12.07;;;7.97;;
20014;SDS011;61787;42.022;23.078;2022-12-07T00:56:08;11.87;;;8.13;;
20014;SDS011;61787;42.022;23.078;2022-12-07T00:57:12;11.17;;;7.50;;
20014;SDS011;61787;42.022;23.078;2022-12-07T00:58:14;14.27;;;7.97;;
20014;SDS011;61787;42.022;23.078;2022-12-07T00:59:16;11.17;;;7.80;;
20014;SDS011;61787;42.022;23.078;2022-12-07T01:00:17;13.07;;;7.73;;
20014;SDS011;61787;42.022;23.078;2022-12-07T01:01:19;10.53;;;7.73;;
20014;SDS011;61787;42.022;23.078;2022-12-07T01:02:21;13.60;;;8.07;;
20014;SDS011;61787;42.022;23.078;2022-12-07T01:03:23;11.37;;;7.90;;
20014;SDS011;61787;42.022;23.078;2022-12-07T01:04:25;14.10;;;8.43;;
20014;SDS011;61787;42.022;23.078;2022-12-07T01:05:26;10.97;;;7.60;;
20014;SDS011;61787;42.022;23.078;2022-12-07T01:06:28;14.20;;;8.03;;
20014;SDS011;61787;42.022;23.078;2022-12-07T01:07:31;13.07;;;8.47;;
20014;SDS011;61787;42.022;23.078;2022-12-07T01:08:32;11.63;;;7.50;;
20014;SDS011;61787;42.022;23.078;2022-12-07T01:09:34;13.83;;;7.80;;
20014;SDS011;61787;42.022;23.078;2022-12-07T01:10:36;15.27;;;8.50;;
20014;SDS011;61787;42.022;23.078;2022-12-07T01:11:37;11.80;;;7.90;;
20014;SDS011;61787;42.022;23.078;2022-12-07T01:12:39;13.60;;;8.97;;
20014;SDS011;61787;42.022;23.078;2022-12-07T01:13:41;14.23;;;8.43;;
20014;SDS011;61787;42.022;23.078;2022-12-07T01:14:43;11.43;;;7.83;;
20014;SDS011;61787;42.022;23.078;2022-12-07T01:15:45;11.57;;;7.70;;
20014;SDS011;61787;42.022;23.078;2022-12-07T01:16:46;10.63;;;7.50;;
20014;SDS011;61787;42.022;23.078;2022-12-07T01:17:48;12.70;;;7.97;;
20014;SDS011;61787;42.022;23.078;2022-12-07T01:18:50;13.10;;;7.90;;
20014;SDS011;61787;42.022;23.078;2022-12-07T01:19:53;17.47;;;7.90;;
20014;SDS011;61787;42.022;23.078;2022-12-07T01:21:02;11.03;;;7.37;;
20014;SDS011;61787;42.022;23.078;2022-12-07T01:22:08;15.80;;;8.13;;
20014;SDS011;61787;42.022;23.078;2022-12-07T01:23:09;12.53;;;7.53;;
20014;SDS011;61787;42.022;23.078;2022-12-07T01:24:11;15.50;;;7.60;;
20014;SDS011;61787;42.022;23.078;2022-12-07T01:25:12;15.20;;;8.40;;
20014;SDS011;61787;42.022;23.078;2022-12-07T01:26:15;18.37;;;8.23;;
20014;SDS011;61787;42.022;23.078;2022-12-07T01:27:19;12.33;;;8.07;;
20014;SDS011;61787;42.022;23.078;2022-12-07T01:28:21;13.03;;;7.80;;
20014;SDS011;61787;42.022;23.078;2022-12-07T01:29:22;15.27;;;8.40;;
20014;SDS011;61787;42.022;23.078;2022-12-07T01:30:24;14.50;;;8.03;;
20014;SDS011;61787;42.022;23.078;2022-12-07T01:31:26;13.23;;;8.10;;
20014;SDS011;61787;42.022;23.078;2022-12-07T01:32:28;13.50;;;7.90;;
20014;SDS011;61787;42.022;23.078;2022-12-07T01:33:34;11.43;;;7.20;;
20014;SDS011;61787;42.022;23.078;2022-12-07T01:34:37;15.40;;;8.30;;
20014;SDS011;61787;42.022;23.078;2022-12-07T01:35:39;12.10;;;7.87;;
20014;SDS011;61787;42.022;23.078;2022-12-07T01:36:41;12.27;;;7.87;;
20014;SDS011;61787;42.022;23.078;2022-12-07T01:37:42;14.13;;;7.93;;
20014;SDS011;61787;42.022;23.078;2022-12-07T01:38:44;18.87;;;8.67;;
20014;SDS011;61787;42.022;23.078;2022-12-07T01:39:50;12.93;;;8.27;;
20014;SDS011;61787;42.022;23.078;2022-12-07T01:40:53;13.27;;;8.03;;
20014;SDS011;61787;42.022;23.078;2022-12-07T01:41:58;13.63;;;8.03;;
20014;SDS011;61787;42.022;23.078;2022-12-07T01:43:00;14.27;;;8.60;;
20014;SDS011;61787;42.022;23.078;2022-12-07T01:46:31;17.10;;;8.10;;
20014;SDS011;61787;42.022;23.078;2022-12-07T01:47:33;14.70;;;7.93;;
20014;SDS011;61787;42.022;23.078;2022-12-07T01:48:37;17.80;;;8.93;;
20014;SDS011;61787;42.022;23.078;2022-12-07T01:49:42;13.80;;;8.53;;
20014;SDS011;61787;42.022;23.078;2022-12-07T01:50:48;16.60;;;8.50;;
20014;SDS011;61787;42.022;23.078;2022-12-07T01:51:54;11.73;;;8.73;;
20014;SDS011;61787;42.022;23.078;2022-12-07T01:53:02;12.50;;;8.57;;
20014;SDS011;61787;42.022;23.078;2022-12-07T01:54:08;15.93;;;8.67;;
20014;SDS011;61787;42.022;23.078;2022-12-07T01:55:12;13.93;;;8.93;;
20014;SDS011;61787;42.022;23.078;2022-12-07T01:56:17;17.20;;;9.40;;
20014;SDS011;61787;42.022;23.078;2022-12-07T01:57:21;19.27;;;9.00;;
20014;SDS011;61787;42.022;23.078;2022-12-07T01:58:23;14.77;;;8.43;;
20014;SDS011;61787;42.022;23.078;2022-12-07T01:59:26;15.67;;;9.40;;
20014;SDS011;61787;42.022;23.078;2022-12-07T02:00:28;14.73;;;8.73;;
20014;SDS011;61787;42.022;23.078;2022-12-07T02:01:29;18.37;;;8.63;;
20014;SDS011;61787;42.022;23.078;2022-12-07T02:02:33;15.73;;;9.03;;
20014;SDS011;61787;42.022;23.078;2022-12-07T02:03:39;20.13;;;8.87;;
20014;SDS011;61787;42.022;23.078;2022-12-07T02:04:42;13.80;;;8.43;;
20014;SDS011;61787;42.022;23.078;2022-12-07T02:05:44;11.70;;;8.30;;
20014;SDS011;61787;42.022;23.078;2022-12-07T02:06:48;13.60;;;7.87;;
20014;SDS011;61787;42.022;23.078;2022-12-07T02:07:52;14.03;;;8.27;;
20014;SDS011;61787;42.022;23.078;2022-12-07T02:08:55;12.17;;;8.27;;
20014;SDS011;61787;42.022;23.078;2022-12-07T02:09:57;14.20;;;8.33;;
20014;SDS011;61787;42.022;23.078;2022-12-07T02:11:00;10.57;;;7.63;;
20014;SDS011;61787;42.022;23.078;2022-12-07T02:12:02;13.17;;;8.07;;
20014;SDS011;61787;42.022;23.078;2022-12-07T02:14:13;11.03;;;7.77;;
20014;SDS011;61787;42.022;23.078;2022-12-07T02:15:14;12.13;;;7.67;;
20014;SDS011;61787;42.022;23.078;2022-12-07T02:20:07;17.70;;;8.60;;
20014;SDS011;61787;42.022;23.078;2022-12-07T02:28:49;14.23;;;8.13;;
20014;SDS011;61787;42.022;23.078;2022-12-07T02:31:09;13.70;;;8.87;;
20014;SDS011;61787;42.022;23.078;2022-12-07T02:33:26;12.90;;;8.13;;
20014;SDS011;61787;42.022;23.078;2022-12-07T02:34:44;14.13;;;8.77;;
20014;SDS011;61787;42.022;23.078;2022-12-07T02:36:04;12.00;;;8.17;;
20014;SDS011;61787;42.022;23.078;2022-12-07T02:37:57;14.83;;;8.63;;
20014;SDS011;61787;42.022;23.078;2022-12-07T02:39:54;13.53;;;8.90;;
20014;SDS011;61787;42.022;23.078;2022-12-07T02:41:04;11.13;;;8.80;;
20014;SDS011;61787;42.022;23.078;2022-12-07T02:42:15;12.30;;;8.07;;
20014;SDS011;61787;42.022;23.078;2022-12-07T02:43:24;11.87;;;8.47;;
20014;SDS011;61787;42.022;23.078;2022-12-07T02:44:28;12.30;;;8.67;;
20014;SDS011;61787;42.022;23.078;2022-12-07T02:45:32;11.07;;;8.27;;
20014;SDS011;61787;42.022;23.078;2022-12-07T02:46:40;13.03;;;8.10;;
20014;SDS011;61787;42.022;23.078;2022-12-07T02:47:46;16.30;;;9.20;;
20014;SDS011;61787;42.022;23.078;2022-12-07T02:48:52;14.87;;;8.97;;
20014;SDS011;61787;42.022;23.078;2022-12-07T02:49:55;14.80;;;9.23;;
20014;SDS011;61787;42.022;23.078;2022-12-07T02:50:57;13.20;;;8.70;;
20014;SDS011;61787;42.022;23.078;2022-12-07T02:51:59;14.67;;;9.40;;
20014;SDS011;61787;42.022;23.078;2022-12-07T02:53:00;13.80;;;8.77;;
20014;SDS011;61787;42.022;23.078;2022-12-07T02:54:02;16.70;;;8.50;;
20014;SDS011;61787;42.022;23.078;2022-12-07T02:55:03;14.50;;;8.53;;
20014;SDS011;61787;42.022;23.078;2022-12-07T02:58:30;17.13;;;8.87;;
20014;SDS011;61787;42.022;23.078;2022-12-07T03:00:00;12.83;;;7.73;;
20014;SDS011;61787;42.022;23.078;2022-12-07T03:01:16;12.57;;;8.57;;
20014;SDS011;61787;42.022;23.078;2022-12-07T03:06:42;11.63;;;8.03;;
20014;SDS011;61787;42.022;23.078;2022-12-07T03:09:28;13.53;;;8.53;;
20014;SDS011;61787;42.022;23.078;2022-12-07T03:10:58;15.03;;;8.10;;
20014;SDS011;61787;42.022;23.078;2022-12-07T03:12:11;13.80;;;8.63;;
20014;SDS011;61787;42.022;23.078;2022-12-07T03:14:29;14.73;;;8.90;;
20014;SDS011;61787;42.022;23.078;2022-12-07T03:15:38;13.63;;;8.33;;
20014;SDS011;61787;42.022;23.078;2022-12-07T03:17:07;15.93;;;8.70;;
20014;SDS011;61787;42.022;23.078;2022-12-07T03:18:15;12.87;;;8.27;;
20014;SDS011;61787;42.022;23.078;2022-12-07T03:19:20;13.87;;;8.80;;
20014;SDS011;61787;42.022;23.078;2022-12-07T03:20:24;14.67;;;8.93;;
20014;SDS011;61787;42.022;23.078;2022-12-07T03:21:30;14.37;;;8.47;;
20014;SDS011;61787;42.022;23.078;2022-12-07T03:22:35;14.60;;;8.63;;
20014;SDS011;61787;42.022;23.078;2022-12-07T03:23:40;18.60;;;9.10;;
20014;SDS011;61787;42.022;23.078;2022-12-07T03:24:47;15.20;;;8.63;;
20014;SDS011;61787;42.022;23.078;2022-12-07T03:25:55;13.47;;;8.73;;
20014;SDS011;61787;42.022;23.078;2022-12-07T03:27:03;15.03;;;8.00;;
20014;SDS011;61787;42.022;23.078;2022-12-07T03:28:27;12.00;;;7.60;;
20014;SDS011;61787;42.022;23.078;2022-12-07T03:29:34;13.47;;;7.13;;
20014;SDS011;61787;42.022;23.078;2022-12-07T03:31:59;11.87;;;7.87;;
20014;SDS011;61787;42.022;23.078;2022-12-07T03:33:07;11.23;;;7.60;;
20014;SDS011;61787;42.022;23.078;2022-12-07T03:34:16;12.00;;;7.30;;
20014;SDS011;61787;42.022;23.078;2022-12-07T03:35:27;10.50;;;7.27;;
20014;SDS011;61787;42.022;23.078;2022-12-07T03:36:35;10.80;;;7.70;;
20014;SDS011;61787;42.022;23.078;2022-12-07T03:39:04;14.83;;;8.37;;
20014;SDS011;61787;42.022;23.078;2022-12-07T03:40:33;15.03;;;8.27;;
20014;SDS011;61787;42.022;23.078;2022-12-07T03:41:40;10.33;;;7.37;;
20014;SDS011;61787;42.022;23.078;2022-12-07T03:42:45;11.97;;;7.57;;
20014;SDS011;61787;42.022;23.078;2022-12-07T03:43:48;14.67;;;8.70;;
20014;SDS011;61787;42.022;23.078;2022-12-07T03:44:50;11.03;;;7.90;;
20014;SDS011;61787;42.022;23.078;2022-12-07T03:48:59;17.87;;;9.33;;
20014;SDS011;61787;42.022;23.078;2022-12-07T03:51:33;16.53;;;10.07;;
20014;SDS011;61787;42.022;23.078;2022-12-07T03:52:55;17.07;;;9.73;;
20014;SDS011;61787;42.022;23.078;2022-12-07T03:54:09;16.33;;;9.47;;
20014;SDS011;61787;42.022;23.078;2022-12-07T03:55:14;15.80;;;10.10;;
20014;SDS011;61787;42.022;23.078;2022-12-07T03:56:20;12.57;;;9.73;;
20014;SDS011;61787;42.022;23.078;2022-12-07T03:57:24;15.33;;;9.33;;
20014;SDS011;61787;42.022;23.078;2022-12-07T03:58:28;15.90;;;9.23;;
20014;SDS011;61787;42.022;23.078;2022-12-07T03:59:30;17.77;;;9.57;;
20014;SDS011;61787;42.022;23.078;2022-12-07T04:00:33;14.67;;;9.50;;
20014;SDS011;61787;42.022;23.078;2022-12-07T04:01:35;14.83;;;9.97;;
20014;SDS011;61787;42.022;23.078;2022-12-07T04:02:36;16.80;;;8.70;;
20014;SDS011;61787;42.022;23.078;2022-12-07T04:03:39;13.27;;;8.13;;
20014;SDS011;61787;42.022;23.078;2022-12-07T04:04:40;15.83;;;8.37;;
20014;SDS011;61787;42.022;23.078;2022-12-07T04:05:43;12.50;;;8.23;;
20014;SDS011;61787;42.022;23.078;2022-12-07T04:06:45;11.87;;;7.93;;
20014;SDS011;61787;42.022;23.078;2022-12-07T04:07:47;12.60;;;8.10;;
20014;SDS011;61787;42.022;23.078;2022-12-07T04:08:49;13.57;;;8.53;;
20014;SDS011;61787;42.022;23.078;2022-12-07T04:09:50;15.60;;;9.37;;
20014;SDS011;61787;42.022;23.078;2022-12-07T04:10:52;14.77;;;8.67;;
20014;SDS011;61787;42.022;23.078;2022-12-07T04:11:53;13.20;;;8.30;;
20014;SDS011;61787;42.022;23.078;2022-12-07T04:12:55;15.40;;;8.63;;
20014;SDS011;61787;42.022;23.078;2022-12-07T04:13:57;12.60;;;7.77;;
20014;SDS011;61787;42.022;23.078;2022-12-07T04:15:17;13.37;;;9.33;;
20014;SDS011;61787;42.022;23.078;2022-12-07T04:16:19;13.40;;;8.83;;
20014;SDS011;61787;42.022;23.078;2022-12-07T04:17:20;18.13;;;10.30;;
20014;SDS011;61787;42.022;23.078;2022-12-07T04:18:22;15.00;;;10.33;;
20014;SDS011;61787;42.022;23.078;2022-12-07T04:19:25;18.20;;;9.90;;
20014;SDS011;61787;42.022;23.078;2022-12-07T04:20:28;13.10;;;8.97;;
20014;SDS011;61787;42.022;23.078;2022-12-07T04:21:30;14.07;;;10.00;;
20014;SDS011;61787;42.022;23.078;2022-12-07T04:22:31;17.20;;;9.43;;
20014;SDS011;61787;42.022;23.078;2022-12-07T04:23:33;15.83;;;9.07;;
20014;SDS011;61787;42.022;23.078;2022-12-07T04:24:34;13.10;;;9.10;;
20014;SDS011;61787;42.022;23.078;2022-12-07T04:25:36;14.10;;;8.17;;
20014;SDS011;61787;42.022;23.078;2022-12-07T04:26:38;11.83;;;8.37;;
20014;SDS011;61787;42.022;23.078;2022-12-07T04:27:39;13.30;;;8.67;;
20014;SDS011;61787;42.022;23.078;2022-12-07T04:28:41;15.83;;;8.70;;
20014;SDS011;61787;42.022;23.078;2022-12-07T04:29:42;15.63;;;8.33;;
20014;SDS011;61787;42.022;23.078;2022-12-07T04:30:45;13.70;;;8.43;;
20014;SDS011;61787;42.022;23.078;2022-12-07T04:31:46;15.23;;;8.87;;
20014;SDS011;61787;42.022;23.078;2022-12-07T04:32:48;13.47;;;8.50;;
20014;SDS011;61787;42.022;23.078;2022-12-07T04:33:50;12.80;;;8.83;;
20014;SDS011;61787;42.022;23.078;2022-12-07T04:34:51;22.90;;;12.10;;
20014;SDS011;61787;42.022;23.078;2022-12-07T04:35:56;15.73;;;9.83;;
20014;SDS011;61787;42.022;23.078;2022-12-07T04:36:57;33.37;;;16.07;;
20014;SDS011;61787;42.022;23.078;2022-12-07T04:37:59;24.70;;;13.87;;
20014;SDS011;61787;42.022;23.078;2022-12-07T04:39:01;14.13;;;8.83;;
20014;SDS011;61787;42.022;23.078;2022-12-07T04:40:04;15.70;;;8.93;;
20014;SDS011;61787;42.022;23.078;2022-12-07T04:41:07;12.33;;;7.80;;
20014;SDS011;61787;42.022;23.078;2022-12-07T04:42:09;12.70;;;8.13;;
20014;SDS011;61787;42.022;23.078;2022-12-07T04:43:11;13.67;;;7.57;;
20014;SDS011;61787;42.022;23.078;2022-12-07T04:44:13;13.03;;;8.57;;
20014;SDS011;61787;42.022;23.078;2022-12-07T04:45:16;11.93;;;8.03;;
20014;SDS011;61787;42.022;23.078;2022-12-07T04:46:17;11.57;;;7.73;;
20014;SDS011;61787;42.022;23.078;2022-12-07T04:47:20;13.87;;;7.73;;
20014;SDS011;61787;42.022;23.078;2022-12-07T04:48:22;15.33;;;8.10;;
20014;SDS011;61787;42.022;23.078;2022-12-07T04:49:23;16.63;;;8.53;;
20014;SDS011;61787;42.022;23.078;2022-12-07T04:50:26;12.63;;;7.70;;
20014;SDS011;61787;42.022;23.078;2022-12-07T04:51:28;12.27;;;7.67;;
20014;SDS011;61787;42.022;23.078;2022-12-07T04:52:30;10.60;;;7.20;;
20014;SDS011;61787;42.022;23.078;2022-12-07T04:53:32;10.80;;;7.63;;
20014;SDS011;61787;42.022;23.078;2022-12-07T04:54:33;13.67;;;7.93;;
20014;SDS011;61787;42.022;23.078;2022-12-07T04:55:35;14.57;;;8.30;;
20014;SDS011;61787;42.022;23.078;2022-12-07T04:56:37;12.83;;;7.97;;
20014;SDS011;61787;42.022;23.078;2022-12-07T04:57:39;16.10;;;8.10;;
20014;SDS011;61787;42.022;23.078;2022-12-07T04:58:41;13.97;;;7.90;;
20014;SDS011;61787;42.022;23.078;2022-12-07T04:59:43;11.93;;;8.60;;
20014;SDS011;61787;42.022;23.078;2022-12-07T05:00:46;13.00;;;8.00;;
20014;SDS011;61787;42.022;23.078;2022-12-07T05:01:48;11.60;;;8.27;;
20014;SDS011;61787;42.022;23.078;2022-12-07T05:02:50;11.67;;;7.73;;
20014;SDS011;61787;42.022;23.078;2022-12-07T05:03:51;16.33;;;8.03;;
20014;SDS011;61787;42.022;23.078;2022-12-07T05:04:53;14.00;;;7.80;;
20014;SDS011;61787;42.022;23.078;2022-12-07T05:05:54;16.43;;;8.40;;
20014;SDS011;61787;42.022;23.078;2022-12-07T05:06:56;14.73;;;8.90;;
20014;SDS011;61787;42.022;23.078;2022-12-07T05:07:57;14.27;;;9.10;;
20014;SDS011;61787;42.022;23.078;2022-12-07T05:08:59;15.67;;;9.17;;
20014;SDS011;61787;42.022;23.078;2022-12-07T05:10:01;16.70;;;9.80;;
20014;SDS011;61787;42.022;23.078;2022-12-07T05:11:05;15.73;;;9.17;;
20014;SDS011;61787;42.022;23.078;2022-12-07T05:12:07;15.43;;;9.97;;
20014;SDS011;61787;42.022;23.078;2022-12-07T05:13:08;16.17;;;9.43;;
20014;SDS011;61787;42.022;23.078;2022-12-07T05:14:12;16.03;;;9.33;;
20014;SDS011;61787;42.022;23.078;2022-12-07T05:15:15;16.20;;;9.83;;
20014;SDS011;61787;42.022;23.078;2022-12-07T05:16:17;14.87;;;8.83;;
20014;SDS011;61787;42.022;23.078;2022-12-07T05:17:19;15.97;;;8.63;;
20014;SDS011;61787;42.022;23.078;2022-12-07T05:18:20;15.10;;;8.17;;
20014;SDS011;61787;42.022;23.078;2022-12-07T05:19:24;16.83;;;8.80;;
20014;SDS011;61787;42.022;23.078;2022-12-07T05:20:27;13.83;;;8.83;;
20014;SDS011;61787;42.022;23.078;2022-12-07T05:21:28;12.37;;;8.40;;
20014;SDS011;61787;42.022;23.078;2022-12-07T05:22:30;16.73;;;8.90;;
20014;SDS011;61787;42.022;23.078;2022-12-07T05:23:32;17.33;;;9.63;;
20014;SDS011;61787;42.022;23.078;2022-12-07T05:24:33;12.27;;;8.90;;
20014;SDS011;61787;42.022;23.078;2022-12-07T05:25:35;18.33;;;9.40;;
20014;SDS011;61787;42.022;23.078;2022-12-07T05:26:37;15.63;;;10.10;;
20014;SDS011;61787;42.022;23.078;2022-12-07T05:27:38;17.63;;;10.47;;
20014;SDS011;61787;42.022;23.078;2022-12-07T05:28:40;19.27;;;11.27;;
20014;SDS011;61787;42.022;23.078;2022-12-07T05:29:42;20.03;;;10.90;;
20014;SDS011;61787;42.022;23.078;2022-12-07T05:30:43;17.60;;;11.03;;
20014;SDS011;61787;42.022;23.078;2022-12-07T05:31:45;16.60;;;10.93;;
20014;SDS011;61787;42.022;23.078;2022-12-07T05:32:47;18.90;;;10.90;;
20014;SDS011;61787;42.022;23.078;2022-12-07T05:33:48;19.47;;;11.43;;
20014;SDS011;61787;42.022;23.078;2022-12-07T05:34:50;22.10;;;10.60;;
20014;SDS011;61787;42.022;23.078;2022-12-07T05:35:52;18.77;;;10.57;;
20014;SDS011;61787;42.022;23.078;2022-12-07T05:36:53;21.67;;;12.30;;
20014;SDS011;61787;42.022;23.078;2022-12-07T05:37:55;23.87;;;12.20;;
20014;SDS011;61787;42.022;23.078;2022-12-07T05:38:58;18.63;;;12.17;;
20014;SDS011;61787;42.022;23.078;2022-12-07T05:40:00;23.63;;;12.70;;
20014;SDS011;61787;42.022;23.078;2022-12-07T05:41:03;23.13;;;11.77;;
20014;SDS011;61787;42.022;23.078;2022-12-07T05:42:06;18.20;;;10.20;;
20014;SDS011;61787;42.022;23.078;2022-12-07T05:43:13;14.40;;;9.47;;
20014;SDS011;61787;42.022;23.078;2022-12-07T05:44:15;14.30;;;9.37;;
20014;SDS011;61787;42.022;23.078;2022-12-07T05:45:16;18.50;;;11.17;;
20014;SDS011;61787;42.022;23.078;2022-12-07T05:46:18;16.43;;;10.37;;
20014;SDS011;61787;42.022;23.078;2022-12-07T05:47:20;20.80;;;10.90;;
20014;SDS011;61787;42.022;23.078;2022-12-07T05:48:22;21.83;;;11.10;;
20014;SDS011;61787;42.022;23.078;2022-12-07T05:49:23;16.87;;;10.87;;
20014;SDS011;61787;42.022;23.078;2022-12-07T05:50:25;16.33;;;10.80;;
20014;SDS011;61787;42.022;23.078;2022-12-07T05:51:27;18.93;;;11.40;;
20014;SDS011;61787;42.022;23.078;2022-12-07T05:52:29;21.07;;;11.77;;
20014;SDS011;61787;42.022;23.078;2022-12-07T05:53:30;18.53;;;11.37;;
20014;SDS011;61787;42.022;23.078;2022-12-07T05:54:32;18.70;;;11.57;;
20014;SDS011;61787;42.022;23.078;2022-12-07T05:55:34;24.20;;;12.47;;
20014;SDS011;61787;42.022;23.078;2022-12-07T05:56:36;20.40;;;12.37;;
20014;SDS011;61787;42.022;23.078;2022-12-07T05:57:37;19.50;;;12.37;;
20014;SDS011;61787;42.022;23.078;2022-12-07T05:58:39;26.57;;;12.40;;
20014;SDS011;61787;42.022;23.078;2022-12-07T05:59:59;25.00;;;13.70;;
20014;SDS011;61787;42.022;23.078;2022-12-07T06:01:01;24.43;;;13.70;;
20014;SDS011;61787;42.022;23.078;2022-12-07T06:02:07;25.73;;;13.87;;
20014;SDS011;61787;42.022;23.078;2022-12-07T06:03:10;21.93;;;14.10;;
20014;SDS011;61787;42.022;23.078;2022-12-07T06:04:11;31.63;;;15.53;;
20014;SDS011;61787;42.022;23.078;2022-12-07T06:05:13;40.57;;;17.37;;
20014;SDS011;61787;42.022;23.078;2022-12-07T06:06:15;42.63;;;20.20;;
20014;SDS011;61787;42.022;23.078;2022-12-07T06:07:16;47.30;;;21.53;;
20014;SDS011;61787;42.022;23.078;2022-12-07T06:08:18;39.83;;;21.93;;
20014;SDS011;61787;42.022;23.078;2022-12-07T06:09:20;44.87;;;23.00;;
20014;SDS011;61787;42.022;23.078;2022-12-07T06:10:23;40.37;;;21.37;;
20014;SDS011;61787;42.022;23.078;2022-12-07T06:11:24;40.43;;;22.00;;
20014;SDS011;61787;42.022;23.078;2022-12-07T06:12:44;43.00;;;21.37;;
20014;SDS011;61787;42.022;23.078;2022-12-07T06:13:47;38.47;;;20.87;;
20014;SDS011;61787;42.022;23.078;2022-12-07T06:14:48;34.57;;;19.50;;
20014;SDS011;61787;42.022;23.078;2022-12-07T06:15:50;41.63;;;18.80;;
20014;SDS011;61787;42.022;23.078;2022-12-07T06:16:52;33.97;;;18.20;;
20014;SDS011;61787;42.022;23.078;2022-12-07T06:17:53;32.90;;;17.20;;
20014;SDS011;61787;42.022;23.078;2022-12-07T06:18:55;29.60;;;16.50;;
20014;SDS011;61787;42.022;23.078;2022-12-07T06:19:56;28.57;;;16.67;;
20014;SDS011;61787;42.022;23.078;2022-12-07T06:20:58;30.43;;;17.43;;
20014;SDS011;61787;42.022;23.078;2022-12-07T06:22:00;32.67;;;17.87;;
20014;SDS011;61787;42.022;23.078;2022-12-07T06:23:03;29.13;;;18.63;;
20014;SDS011;61787;42.022;23.078;2022-12-07T06:24:05;33.13;;;17.30;;
20014;SDS011;61787;42.022;23.078;2022-12-07T06:25:07;29.37;;;15.83;;
20014;SDS011;61787;42.022;23.078;2022-12-07T06:26:09;28.77;;;15.40;;
20014;SDS011;61787;42.022;23.078;2022-12-07T06:27:11;25.20;;;14.43;;
20014;SDS011;61787;42.022;23.078;2022-12-07T06:28:13;28.67;;;14.87;;
20014;SDS011;61787;42.022;23.078;2022-12-07T06:29:15;24.43;;;12.43;;
20014;SDS011;61787;42.022;23.078;2022-12-07T06:30:18;21.37;;;12.90;;
20014;SDS011;61787;42.022;23.078;2022-12-07T06:31:19;19.00;;;13.00;;
20014;SDS011;61787;42.022;23.078;2022-12-07T06:32:21;19.57;;;12.80;;
20014;SDS011;61787;42.022;23.078;2022-12-07T06:33:23;17.37;;;11.50;;
20014;SDS011;61787;42.022;23.078;2022-12-07T06:34:25;18.97;;;12.23;;
20014;SDS011;61787;42.022;23.078;2022-12-07T06:35:27;21.80;;;11.77;;
20014;SDS011;61787;42.022;23.078;2022-12-07T06:36:29;24.50;;;12.10;;
20014;SDS011;61787;42.022;23.078;2022-12-07T06:37:31;21.30;;;11.90;;
20014;SDS011;61787;42.022;23.078;2022-12-07T06:38:32;20.63;;;13.27;;
20014;SDS011;61787;42.022;23.078;2022-12-07T06:39:34;23.10;;;13.33;;
20014;SDS011;61787;42.022;23.078;2022-12-07T06:40:35;27.10;;;13.97;;
20014;SDS011;61787;42.022;23.078;2022-12-07T06:41:37;26.03;;;13.33;;
20014;SDS011;61787;42.022;23.078;2022-12-07T06:42:39;22.53;;;13.43;;
20014;SDS011;61787;42.022;23.078;2022-12-07T06:43:41;26.70;;;13.93;;
20014;SDS011;61787;42.022;23.078;2022-12-07T06:44:43;32.20;;;14.17;;
20014;SDS011;61787;42.022;23.078;2022-12-07T06:45:44;25.50;;;13.67;;
20014;SDS011;61787;42.022;23.078;2022-12-07T06:46:46;20.20;;;13.07;;